Connecticut River @ North Walpole, Nh

Connecticut River at North Walpole
 Total Drainage Area: 5,493 sq. miles 
 Drainage Area Controlled by Corps Dams: 504 sq. miles (9%) 
 Warning Flow/Stage: 65,100 cfs / 24.0 feet 
 Flood Flow/Stage: 92,800 cfs / 30.0 feet 
Date Time
(Eastern)
Stage
(ft)
Flow
(cfs)
CSM
(cfs / sq. mi.)
Precip.
(in)
Air Temp.
(F)
Jun-25 01:45 am 12.02 14,729 2.7 7.32 58.0
Jun-25 12:45 am 12.05 14,825 2.7 7.32 59.5
Jun-24 11:45 pm 12.10 14,985 2.7 7.32 61.9
Jun-24 10:45 pm 12.48 16,230 3.0 7.32 64.3
Jun-24 09:45 pm 12.52 16,365 3.0 7.32 64.0
Jun-24 08:45 pm 12.53 16,398 3.0 7.32 63.8
Jun-24 07:45 pm 12.39 15,931 2.9 7.32 63.3
Jun-24 06:45 pm 12.24 15,438 2.8 7.32 64.3
Jun-24 05:45 pm 12.25 15,471 2.8 7.31 67.8
Jun-24 04:45 pm 12.36 15,832 2.9 7.31 68.7
Jun-24 03:45 pm 12.27 15,536 2.8 7.31 66.9
Jun-24 02:45 pm 12.30 15,634 2.9 7.31 70.7
Jun-24 01:45 pm 12.29 15,601 2.8 7.31 70.2
Jun-24 12:45 pm 12.35 15,799 2.9 7.31 70.0
Jun-24 11:45 am 12.51 16,331 3.0 7.31 70.2
Jun-24 10:45 am 11.69 13,697 2.5 7.31 68.3
Jun-24 09:45 am 10.79 11,074 2.0 7.31 68.5
Jun-24 08:45 am 10.80 11,102 2.0 7.31 66.9
Jun-24 07:45 am 10.78 11,047 2.0 7.31 66.0
Jun-24 06:45 am 10.78 11,047 2.0 7.31 65.0
Jun-24 05:45 am 10.73 10,909 2.0 7.31 67.1
Jun-24 04:45 am 10.29 9,738 1.8 7.31 68.4
Jun-24 03:45 am 10.29 9,738 1.8 7.31 69.1
Jun-24 02:45 am 10.28 9,712 1.8 7.31 70.4
Jun-24 01:45 am 10.27 9,687 1.8 7.31 71.0
Report Generated June 25, 2024 02:13 am